Time;durP1;ratioP1;P1;durP2;ratioP2;P2;SDS_P1;SDS_P2;PMS_P1;PMS_P2;Temp;Humidity;BMP_temperature;BMP_pressure;BME280_temperature;BME280_humidity;BME280_pressure;Samples;Min_cycle;Max_cycle;Signal;HPM_P1;HPM_P2
2021/08/26 00:00:05;;;;;;;;;;;;;;;22.55;71.05;100610.47;4940008;28;102006;-92
2021/08/26 00:08:00;;;;;;;;;;;;;;;22.54;71.12;100595.00;4938333;28;102823;-92
2021/08/26 00:10:28;;;;;;;;;;;;;;;22.53;70.92;100598.91;4938645;28;102098;-90
2021/08/26 00:12:54;;;;;;;;;;;;;;;22.52;70.96;100597.31;4931626;28;102167;-86
2021/08/26 00:15:21;;;;;;;;;;;;;;;22.54;70.93;100595.00;4934711;28;102150;-90
2021/08/26 00:17:48;;;;;;;;;;;;;;;22.53;71.06;100601.69;4935621;28;102826;-86
2021/08/26 00:20:14;;;;;;;;;;;;;;;22.52;70.80;100586.22;4941089;28;102274;-86
2021/08/26 00:22:41;;;;;;;;;;;;;;;22.54;70.99;100600.53;4932456;28;102387;-86
2021/08/26 00:25:07;;;;;;;;;;;;;;;22.52;70.86;100591.75;4938749;28;102263;-86
2021/08/26 00:27:33;;;;;;;;;;;;;;;22.51;71.03;100596.50;4953917;28;102508;-86
2021/08/26 00:30:00;;;;;;;;;;;;;;;22.52;71.00;100597.31;4942612;28;102171;-86
2021/08/26 00:32:28;;;;;;;;;;;;;;;22.52;70.86;100598.09;4951175;28;102272;-86
2021/08/26 00:34:54;;;;;;;;;;;;;;;22.52;70.78;100598.09;4936103;28;102136;-86
2021/08/26 00:37:20;;;;;;;;;;;;;;;22.52;71.00;100586.22;4942439;28;103852;-86
2021/08/26 00:39:46;;;;;;;;;;;;;;;22.52;70.73;100608.41;4940715;28;102115;-86
2021/08/26 00:42:12;;;;;;;;;;;;;;;22.51;71.12;100607.59;4939812;28;102281;-86
2021/08/26 00:44:39;;;;;;;;;;;;;;;22.51;71.01;100604.81;4941637;28;102247;-85
2021/08/26 00:47:05;;;;;;;;;;;;;;;22.51;70.96;100602.03;4940716;28;102729;-86
2021/08/26 00:49:33;;;;;;;;;;;;;;;22.52;71.07;100591.75;4940702;28;102349;-86
2021/08/26 00:52:00;;;;;;;;;;;;;;;22.51;70.94;100590.16;4938547;28;102065;-86
2021/08/26 00:54:26;;;;;;;;;;;;;;;22.51;70.84;100587.38;4944763;28;102266;-86
2021/08/26 00:56:54;;;;;;;;;;;;;;;22.50;70.79;100594.91;4944313;28;102814;-86
2021/08/26 00:59:20;;;;;;;;;;;;;;;22.51;71.08;100595.69;4938375;28;102082;-86
2021/08/26 01:01:51;;;;;;;;;;;;;;;22.51;71.11;100587.38;4937403;28;102090;-86
2021/08/26 01:04:22;;;;;;;;;;;;;;;22.50;71.22;100585.75;4936971;28;102190;-87
2021/08/26 01:06:55;;;;;;;;;;;;;;;22.50;71.08;100582.97;4941598;28;103841;-86
2021/08/26 01:09:23;;;;;;;;;;;;;;;22.51;70.85;100584.59;4941563;28;102162;-86
2021/08/26 01:11:50;;;;;;;;;;;;;;;22.50;71.15;100582.97;4939779;28;102146;-86
2021/08/26 01:14:17;;;;;;;;;;;;;;;22.50;71.10;100581.03;4944105;28;102187;-85
2021/08/26 01:16:43;;;;;;;;;;;;;;;22.51;71.07;100587.38;4942710;28;104015;-87
2021/08/26 01:19:09;;;;;;;;;;;;;;;22.51;71.21;100584.59;4959932;28;101972;-87
2021/08/26 01:21:36;;;;;;;;;;;;;;;22.49;70.84;100571.06;4944858;28;102213;-86
2021/08/26 01:24:05;;;;;;;;;;;;;;;22.50;70.95;100571.88;4945880;28;102150;-86
2021/08/26 01:26:35;;;;;;;;;;;;;;;22.50;71.12;100566.34;4940077;28;102792;-86
2021/08/26 01:29:04;;;;;;;;;;;;;;;22.49;71.16;100567.50;4944072;28;102121;-87
2021/08/26 01:31:31;;;;;;;;;;;;;;;22.49;71.12;100564.72;4938036;28;103214;-86
2021/08/26 01:33:58;;;;;;;;;;;;;;;22.49;71.00;100565.53;4944727;28;102297;-86
2021/08/26 01:36:26;;;;;;;;;;;;;;;22.48;71.13;100569.47;4938923;28;104237;-86
2021/08/26 01:38:52;;;;;;;;;;;;;;;22.49;71.15;100573.84;4939507;28;101979;-86
2021/08/26 01:41:19;;;;;;;;;;;;;;;22.49;70.94;100568.31;4944027;28;102237;-86
2021/08/26 01:43:49;;;;;;;;;;;;;;;22.50;71.03;100571.88;4944133;28;102083;-86
2021/08/26 01:46:15;;;;;;;;;;;;;;;22.48;70.83;100558.38;4944884;28;102505;-86
2021/08/26 01:48:41;;;;;;;;;;;;;;;22.48;71.14;100552.03;4942388;28;102075;-87
2021/08/26 01:51:07;;;;;;;;;;;;;;;22.49;71.24;100548.09;4940663;28;102275;-86
2021/08/26 01:53:33;;;;;;;;;;;;;;;22.49;70.90;100546.13;4959985;28;102192;-90
2021/08/26 01:56:02;;;;;;;;;;;;;;;22.49;70.97;100548.09;4939754;28;102698;-90
2021/08/26 01:58:28;;;;;;;;;;;;;;;22.49;71.06;100542.53;4944555;28;102319;-86
2021/08/26 02:00:56;;;;;;;;;;;;;;;22.48;71.22;100549.25;4954795;28;102007;-86
2021/08/26 02:03:22;;;;;;;;;;;;;;;22.48;71.03;100561.16;4943889;28;102157;-87
2021/08/26 02:05:49;;;;;;;;;;;;;;;22.48;71.09;100552.84;4934952;28;102470;-86
2021/08/26 02:08:15;;;;;;;;;;;;;;;22.48;71.04;100538.16;4943954;28;102072;-86
2021/08/26 02:10:41;;;;;;;;;;;;;;;22.47;71.24;100531.81;4942943;28;102148;-90
2021/08/26 02:13:08;;;;;;;;;;;;;;;22.47;70.98;100529.03;4944744;28;102123;-91
2021/08/26 02:15:34;;;;;;;;;;;;;;;22.47;71.12;100533.78;4941564;28;102603;-91
2021/08/26 02:18:03;;;;;;;;;;;;;;;22.47;71.25;100533.78;4943112;28;102036;-90
2021/08/26 02:20:29;;;;;;;;;;;;;;;22.46;70.98;100541.28;4942934;28;102052;-91
2021/08/26 02:22:55;;;;;;;;;;;;;;;22.47;71.10;100534.59;4944602;28;102079;-91
2021/08/26 02:25:21;;;;;;;;;;;;;;;22.47;71.06;100542.13;4942590;28;102525;-91
2021/08/26 02:27:48;;;;;;;;;;;;;;;22.47;71.03;100540.13;4936536;28;102312;-91
2021/08/26 02:30:14;;;;;;;;;;;;;;;22.47;70.92;100539.34;4959569;28;102748;-91
2021/08/26 02:32:40;;;;;;;;;;;;;;;22.45;71.22;100530.56;4946627;28;102125;-91
2021/08/26 02:35:08;;;;;;;;;;;;;;;22.46;70.97;100543.25;4943775;28;102402;-90
2021/08/26 02:37:35;;;;;;;;;;;;;;;22.46;71.20;100544.06;4943888;28;102118;-91
2021/08/26 02:40:01;;;;;;;;;;;;;;;22.46;71.19;100549.59;4942982;28;102166;-90
2021/08/26 02:42:29;;;;;;;;;;;;;;;22.46;71.04;100565.44;4942797;28;102250;-90
2021/08/26 02:44:56;;;;;;;;;;;;;;;22.46;71.04;100559.88;4939179;28;102731;-91
2021/08/26 02:47:22;;;;;;;;;;;;;;;22.47;71.05;100555.97;4941416;28;102229;-90
2021/08/26 02:49:50;;;;;;;;;;;;;;;22.47;71.30;100544.88;4942183;28;102287;-91
2021/08/26 02:52:17;;;;;;;;;;;;;;;22.46;70.94;100555.16;4954753;28;102456;-90
2021/08/26 02:54:44;;;;;;;;;;;;;;;22.46;71.18;100546.03;4936901;28;102692;-86
2021/08/26 02:57:12;;;;;;;;;;;;;;;22.45;71.12;100545.22;4940615;28;102044;-86
2021/08/26 02:59:39;;;;;;;;;;;;;;;22.46;71.11;100548.78;4941944;28;102027;-85
2021/08/26 03:02:05;;;;;;;;;;;;;;;22.46;70.99;100549.59;4953343;28;102086;-85
2021/08/26 03:04:32;;;;;;;;;;;;;;;22.45;71.08;100547.19;4940833;28;102797;-85
2021/08/26 03:06:58;;;;;;;;;;;;;;;22.46;71.16;100554.34;4938470;28;102083;-86
2021/08/26 03:09:26;;;;;;;;;;;;;;;22.47;71.36;100550.44;4937839;28;102155;-85
2021/08/26 03:11:52;;;;;;;;;;;;;;;22.45;71.20;100545.22;4934368;28;102176;-85
2021/08/26 03:14:18;;;;;;;;;;;;;;;22.46;71.05;100543.25;4941594;28;102317;-85
2021/08/26 03:16:45;;;;;;;;;;;;;;;22.45;71.10;100539.69;4942648;28;102166;-86
2021/08/26 03:19:11;;;;;;;;;;;;;;;22.46;71.29;100537.72;4941201;28;102177;-85
2021/08/26 03:21:37;;;;;;;;;;;;;;;22.46;71.29;100535.72;4943531;28;102310;-85
2021/08/26 03:24:04;;;;;;;;;;;;;;;22.46;71.37;100537.72;4940062;28;102134;-85
2021/08/26 03:26:33;;;;;;;;;;;;;;;22.46;71.26;100543.25;4941117;28;102137;-86
2021/08/26 03:28:59;;;;;;;;;;;;;;;22.45;71.14;100542.44;4939945;28;102156;-85
2021/08/26 03:31:26;;;;;;;;;;;;;;;22.46;71.05;100543.25;4941116;28;102245;-85
2021/08/26 03:33:52;;;;;;;;;;;;;;;22.45;71.13;100548.00;4947528;28;102698;-85
2021/08/26 03:36:18;;;;;;;;;;;;;;;22.45;71.29;100545.22;4956111;28;102019;-85
2021/08/26 03:38:45;;;;;;;;;;;;;;;22.45;71.23;100558.28;4940427;28;102117;-85
2021/08/26 03:41:11;;;;;;;;;;;;;;;22.45;71.26;100552.75;4941690;28;102223;-91
2021/08/26 03:43:39;;;;;;;;;;;;;;;22.44;71.27;100546.41;4941216;28;102607;-86
2021/08/26 03:46:05;;;;;;;;;;;;;;;22.45;71.09;100542.44;4939185;28;102101;-86
2021/08/26 03:48:32;;;;;;;;;;;;;;;22.45;71.08;100542.44;4940699;28;102154;-86
2021/08/26 03:51:00;;;;;;;;;;;;;;;22.45;71.37;100536.09;4942461;28;102149;-85
2021/08/26 03:53:26;;;;;;;;;;;;;;;22.45;71.03;100541.66;4942386;28;102858;-90
2021/08/26 03:55:53;;;;;;;;;;;;;;;22.44;71.16;100549.16;4942666;28;101871;-90
2021/08/26 03:58:19;;;;;;;;;;;;;;;22.46;71.10;100562.66;4941007;28;102143;-90
2021/08/26 04:00:47;;;;;;;;;;;;;;;22.45;71.38;100558.28;4939312;28;102023;-90
2021/08/26 04:03:13;;;;;;;;;;;;;;;22.44;71.47;100563.03;4958936;28;103912;-90
2021/08/26 04:05:40;;;;;;;;;;;;;;;22.46;71.16;100559.88;4940911;28;103388;-91
2021/08/26 04:08:06;;;;;;;;;;;;;;;22.44;71.32;100556.69;4938404;28;102213;-86
2021/08/26 04:10:32;;;;;;;;;;;;;;;22.45;71.18;100552.75;4943251;28;102172;-86
2021/08/26 04:12:59;;;;;;;;;;;;;;;22.44;71.13;100559.47;4940726;28;102714;-91
2021/08/26 04:15:25;;;;;;;;;;;;;;;22.44;71.40;100553.91;4941111;28;102114;-92
2021/08/26 04:17:53;;;;;;;;;;;;;;;22.45;71.12;100563.84;4940446;28;102214;-92
2021/08/26 04:20:19;;;;;;;;;;;;;;;22.45;71.22;100558.28;4942817;28;102102;-90
2021/08/26 04:22:45;;;;;;;;;;;;;;;22.45;71.39;100558.28;4940513;28;102504;-92
2021/08/26 04:25:12;;;;;;;;;;;;;;;22.45;71.33;100559.09;4941500;28;102128;-91
2021/08/26 04:27:38;;;;;;;;;;;;;;;22.45;71.27;100561.84;4933776;28;102188;-92
2021/08/26 04:30:05;;;;;;;;;;;;;;;22.45;71.23;100558.28;4941863;28;102144;-86
2021/08/26 04:32:31;;;;;;;;;;;;;;;22.44;71.14;100556.69;4940259;28;103889;-86
2021/08/26 04:34:59;;;;;;;;;;;;;;;22.44;71.16;100551.94;4941888;28;102018;-91
2021/08/26 04:37:26;;;;;;;;;;;;;;;22.44;71.25;100553.91;4938486;28;102102;-91
2021/08/26 04:39:53;;;;;;;;;;;;;;;22.43;71.08;100550.34;4942343;28;102057;-85
2021/08/26 04:42:19;;;;;;;;;;;;;;;22.44;71.18;100551.13;4953580;28;103862;-86
2021/08/26 04:44:45;;;;;;;;;;;;;;;22.43;71.25;100546.72;4941269;28;102128;-85
2021/08/26 04:47:11;;;;;;;;;;;;;;;22.43;71.23;100543.97;4939782;28;102106;-85
2021/08/26 04:49:38;;;;;;;;;;;;;;;22.44;71.03;100534.50;4942484;28;102214;-85
2021/08/26 04:52:06;;;;;;;;;;;;;;;22.44;71.23;100531.72;4939717;28;102106;-91
2021/08/26 04:54:32;;;;;;;;;;;;;;;22.44;71.29;100534.50;4942836;28;102158;-90
2021/08/26 04:56:59;;;;;;;;;;;;;;;22.45;71.14;100541.66;4936422;28;102223;-85
2021/08/26 04:59:25;;;;;;;;;;;;;;;22.44;71.33;100551.13;4943218;28;102337;-86
2021/08/26 05:01:51;;;;;;;;;;;;;;;22.44;71.02;100545.59;4953380;28;102749;-86
2021/08/26 05:04:22;;;;;;;;;;;;;;;22.44;71.27;100545.59;4940783;28;102119;-85
2021/08/26 05:06:49;;;;;;;;;;;;;;;22.45;71.33;100550.78;4953554;28;102213;-85
2021/08/26 05:09:16;;;;;;;;;;;;;;;22.45;71.30;100544.41;4944957;28;102214;-90
2021/08/26 05:11:43;;;;;;;;;;;;;;;22.44;71.33;100542.81;4934668;28;104088;-91
2021/08/26 05:14:09;;;;;;;;;;;;;;;22.44;71.06;100540.84;4943967;28;101981;-86
2021/08/26 05:16:35;;;;;;;;;;;;;;;22.45;71.24;100552.75;4938723;28;102302;-86
2021/08/26 05:19:01;;;;;;;;;;;;;;;22.45;71.14;100552.75;4943121;28;102083;-91
2021/08/26 05:21:27;;;;;;;;;;;;;;;22.45;71.28;100552.75;4939510;28;102766;-91
2021/08/26 05:23:55;;;;;;;;;;;;;;;22.44;71.18;100549.16;4936335;28;102096;-86
2021/08/26 05:26:23;;;;;;;;;;;;;;;22.44;71.23;100540.84;4942636;28;102227;-91
2021/08/26 05:28:49;;;;;;;;;;;;;;;22.45;71.12;100530.56;4943090;28;102111;-91
2021/08/26 05:31:16;;;;;;;;;;;;;;;22.45;71.04;100525.81;4942567;28;102722;-86
2021/08/26 05:33:43;;;;;;;;;;;;;;;22.46;71.33;100521.06;4940629;28;102211;-91
2021/08/26 05:36:10;;;;;;;;;;;;;;;22.45;71.31;100525.00;4938168;28;102087;-90
2021/08/26 05:38:36;;;;;;;;;;;;;;;22.46;71.28;100521.06;4941143;28;102375;-86
2021/08/26 05:41:03;;;;;;;;;;;;;;;22.48;71.15;100524.31;4941660;28;102810;-90
2021/08/26 05:43:30;;;;;;;;;;;;;;;22.46;71.07;100519.09;4943124;28;102182;-85
2021/08/26 05:45:56;;;;;;;;;;;;;;;22.48;71.17;100518.75;4938460;28;102283;-86
2021/08/26 05:48:22;;;;;;;;;;;;;;;22.48;71.34;100514.00;4939412;28;102111;-90
2021/08/26 05:50:49;;;;;;;;;;;;;;;22.48;71.27;100507.66;4938994;28;102836;-86
2021/08/26 05:53:15;;;;;;;;;;;;;;;22.49;70.95;100506.50;4939668;28;102107;-90
2021/08/26 05:55:42;;;;;;;;;;;;;;;22.50;71.53;100511.69;4943808;28;102150;-85
2021/08/26 05:58:08;;;;;;;;;;;;;;;22.51;70.92;100512.50;4959044;28;102164;-90
2021/08/26 06:00:36;;;;;;;;;;;;;;;22.51;71.02;100507.75;4952830;28;102801;-90
2021/08/26 06:03:03;;;;;;;;;;;;;;;22.52;71.12;100514.09;4940878;28;102249;-90
2021/08/26 06:05:29;;;;;;;;;;;;;;;22.53;71.09;100510.16;4940051;28;102119;-85
2021/08/26 06:07:55;;;;;;;;;;;;;;;22.53;71.17;100505.41;4941136;28;102217;-85
2021/08/26 06:10:22;;;;;;;;;;;;;;;22.54;70.83;100506.25;4937662;28;102729;-90
2021/08/26 06:12:48;;;;;;;;;;;;;;;22.54;71.08;100507.03;4941120;28;102234;-90
2021/08/26 06:15:16;;;;;;;;;;;;;;;22.54;70.91;100501.50;4943093;28;102149;-90
2021/08/26 06:17:43;;;;;;;;;;;;;;;22.55;70.96;100496.75;4938863;28;102876;-85
2021/08/26 06:20:11;;;;;;;;;;;;;;;22.55;70.82;100502.31;4942263;28;102375;-90
2021/08/26 06:22:38;;;;;;;;;;;;;;;22.55;71.14;100496.75;4939740;28;102074;-90
2021/08/26 06:25:05;;;;;;;;;;;;;;;22.56;70.91;100506.69;4943644;28;102373;-90
2021/08/26 06:27:31;;;;;;;;;;;;;;;22.57;70.94;100510.25;4941994;28;102233;-85
2021/08/26 06:29:58;;;;;;;;;;;;;;;22.57;71.12;100513.03;4942462;28;102690;-86
2021/08/26 06:32:24;;;;;;;;;;;;;;;22.57;71.05;100504.69;4942908;28;102086;-85
2021/08/26 06:34:52;;;;;;;;;;;;;;;22.57;71.15;100508.28;4942772;28;102226;-86
2021/08/26 06:37:18;;;;;;;;;;;;;;;22.58;70.94;100512.69;4943501;28;102119;-90
2021/08/26 06:39:44;;;;;;;;;;;;;;;22.58;70.99;100512.69;4940146;28;102714;-85
2021/08/26 06:42:10;;;;;;;;;;;;;;;22.57;71.22;100511.06;4944367;28;102155;-86
2021/08/26 06:44:37;;;;;;;;;;;;;;;22.59;70.99;100508.75;4941028;28;102227;-85
2021/08/26 06:47:03;;;;;;;;;;;;;;;22.58;71.08;100507.13;4958532;28;102127;-90
2021/08/26 06:49:30;;;;;;;;;;;;;;;22.58;71.26;100504.38;4931826;28;102140;-86
2021/08/26 06:51:58;;;;;;;;;;;;;;;22.59;70.97;100514.28;4942999;28;102198;-86
2021/08/26 06:54:24;;;;;;;;;;;;;;;22.59;71.26;100521.81;4941277;28;102095;-86
2021/08/26 06:56:50;;;;;;;;;;;;;;;22.60;71.16;100521.44;4943827;28;102142;-90
2021/08/26 06:59:16;;;;;;;;;;;;;;;22.61;70.99;100516.69;4942650;28;102935;-91
2021/08/26 07:01:43;;;;;;;;;;;;;;;22.60;71.23;100515.88;4957815;28;102417;-90
2021/08/26 07:04:09;;;;;;;;;;;;;;;22.60;71.22;100515.09;4944768;28;102038;-90
2021/08/26 07:06:37;;;;;;;;;;;;;;;22.60;70.98;100504.78;4943813;28;102028;-91
2021/08/26 07:09:05;;;;;;;;;;;;;;;22.60;71.24;100502.03;4941185;28;103185;-86
2021/08/26 07:11:31;;;;;;;;;;;;;;;22.61;71.18;100509.19;4940982;28;102092;-85
2021/08/26 07:13:58;;;;;;;;;;;;;;;22.62;70.94;100513.56;4940994;28;102157;-85
2021/08/26 07:16:24;;;;;;;;;;;;;;;22.62;71.31;100516.34;4942885;28;102103;-85
2021/08/26 07:18:50;;;;;;;;;;;;;;;22.63;71.23;100515.19;4941988;28;102943;-86
2021/08/26 07:21:17;;;;;;;;;;;;;;;22.63;71.21;100525.47;4942361;28;102000;-86
2021/08/26 07:23:43;;;;;;;;;;;;;;;22.64;71.02;100519.56;4942119;28;102152;-86
2021/08/26 07:26:10;;;;;;;;;;;;;;;22.63;70.98;100515.19;4941126;28;102076;-90
2021/08/26 07:28:37;;;;;;;;;;;;;;;22.63;71.15;100520.72;4942875;28;102683;-90
2021/08/26 07:31:03;;;;;;;;;;;;;;;22.64;71.14;100525.09;4943888;28;101870;-90
2021/08/26 07:33:30;;;;;;;;;;;;;;;22.65;71.08;100517.59;4940377;28;102095;-86
2021/08/26 07:35:56;;;;;;;;;;;;;;;22.65;71.08;100523.97;4943720;28;102409;-86
2021/08/26 07:38:22;;;;;;;;;;;;;;;22.65;71.09;100535.06;4942666;28;102130;-90
2021/08/26 07:40:49;;;;;;;;;;;;;;;22.66;71.11;100539.44;4943691;28;102099;-91
2021/08/26 07:43:18;;;;;;;;;;;;;;;22.66;70.90;100542.22;4940262;28;102113;-90
2021/08/26 07:45:44;;;;;;;;;;;;;;;22.65;70.97;100535.06;4942947;28;102011;-91
2021/08/26 07:48:11;;;;;;;;;;;;;;;22.66;71.21;100536.66;4942302;28;102446;-90
2021/08/26 07:50:37;;;;;;;;;;;;;;;22.67;71.08;100535.47;4936672;28;102107;-90
2021/08/26 07:53:03;;;;;;;;;;;;;;;22.68;71.25;100539.84;4944197;28;102205;-90
2021/08/26 07:55:30;;;;;;;;;;;;;;;22.67;71.26;100534.69;4935585;28;102300;-86
2021/08/26 07:57:56;;;;;;;;;;;;;;;22.68;71.26;100534.31;4939056;28;102513;-86
2021/08/26 08:00:24;;;;;;;;;;;;;;;22.67;70.96;100524.38;4942539;28;102085;-90
2021/08/26 08:02:50;;;;;;;;;;;;;;;22.67;71.10;100527.16;4941452;28;102018;-91
2021/08/26 08:05:16;;;;;;;;;;;;;;;22.69;71.14;100524.06;4942720;28;102182;-91
2021/08/26 08:07:45;;;;;;;;;;;;;;;22.69;70.95;100519.31;4936084;28;102709;-91
2021/08/26 08:10:12;;;;;;;;;;;;;;;22.68;71.23;100523.22;4942992;28;102021;-91
2021/08/26 08:12:38;;;;;;;;;;;;;;;22.69;71.17;100524.84;4941081;28;102007;-91
2021/08/26 08:15:05;;;;;;;;;;;;;;;22.69;70.93;100530.41;4943588;28;102243;-91
2021/08/26 08:17:33;;;;;;;;;;;;;;;22.70;70.84;100526.44;4942195;28;102866;-91
2021/08/26 08:19:59;;;;;;;;;;;;;;;22.69;71.03;100527.63;4942295;28;102053;-85
2021/08/26 08:22:25;;;;;;;;;;;;;;;22.69;71.16;100530.41;4940663;28;102065;-86
2021/08/26 08:24:52;;;;;;;;;;;;;;;22.70;71.29;100537.56;4941998;28;102219;-85
2021/08/26 08:27:18;;;;;;;;;;;;;;;22.70;71.13;100534.78;4940018;28;102586;-91
2021/08/26 08:29:44;;;;;;;;;;;;;;;22.70;71.19;100545.88;4931010;28;102157;-91
2021/08/26 08:32:10;;;;;;;;;;;;;;;22.69;71.21;100546.25;4940839;28;102095;-91
2021/08/26 08:34:38;;;;;;;;;;;;;;;22.69;71.10;100552.59;4942357;28;102170;-86
2021/08/26 08:37:05;;;;;;;;;;;;;;;22.70;71.20;100553.38;4937440;28;102847;-85
2021/08/26 08:39:31;;;;;;;;;;;;;;;22.69;71.27;100552.59;4940194;28;102173;-85
2021/08/26 08:41:57;;;;;;;;;;;;;;;22.70;71.15;100558.94;4930200;28;102152;-85
2021/08/26 08:44:24;;;;;;;;;;;;;;;22.70;71.22;100561.72;4942887;28;102230;-86
2021/08/26 08:46:55;;;;;;;;;;;;;;;22.70;71.17;100565.28;4938916;28;102699;-86
2021/08/26 08:49:21;;;;;;;;;;;;;;;22.69;71.32;100563.69;4941374;28;102257;-85
2021/08/26 08:51:49;;;;;;;;;;;;;;;22.70;71.25;100572.81;4938544;28;102095;-90
2021/08/26 08:54:15;;;;;;;;;;;;;;;22.69;71.31;100563.69;4940236;28;102095;-90
2021/08/26 08:56:42;;;;;;;;;;;;;;;22.68;71.28;100567.59;4943588;28;102811;-90
2021/08/26 08:59:08;;;;;;;;;;;;;;;22.67;71.42;100557.69;4945279;28;102095;-88
2021/08/26 09:01:35;;;;;;;;;;;;;;;22.67;71.37;100549.34;4933007;28;102174;-87
2021/08/26 09:04:01;;;;;;;;;;;;;;;22.68;71.47;100550.97;4944339;28;102120;-86
2021/08/26 09:06:37;;;;;;;;;;;;;;;22.68;71.27;100553.72;4942254;28;103263;-86
2021/08/26 09:09:07;;;;;;;;;;;;;;;22.67;71.64;100549.34;4942488;28;102171;-90
2021/08/26 09:11:34;;;;;;;;;;;;;;;22.68;71.86;100550.16;4944522;28;102188;-90
2021/08/26 09:14:06;;;;;;;;;;;;;;;22.66;71.35;100550.53;4959805;28;102148;-87
2021/08/26 09:16:34;;;;;;;;;;;;;;;22.67;71.76;100554.91;4956918;28;102580;-86
2021/08/26 09:19:15;;;;;;;;;;;;;;;22.67;71.59;100554.09;4940480;28;102051;-86
2021/08/26 09:21:43;;;;;;;;;;;;;;;22.67;71.57;100556.88;4939794;28;102136;-86
2021/08/26 09:24:10;;;;;;;;;;;;;;;22.67;71.69;100554.09;4944602;28;102219;-86
2021/08/26 09:26:39;;;;;;;;;;;;;;;22.68;71.55;100555.69;4945698;28;102770;-86
2021/08/26 09:29:08;;;;;;;;;;;;;;;22.67;71.36;100549.34;4943025;28;102160;-86
2021/08/26 09:31:34;;;;;;;;;;;;;;;22.67;71.66;100543.81;4957724;28;102120;-86
2021/08/26 09:34:01;;;;;;;;;;;;;;;22.67;71.41;100549.34;4940447;28;102179;-86
2021/08/26 09:36:30;;;;;;;;;;;;;;;22.68;71.55;100552.94;4934560;28;102910;-86
2021/08/26 09:38:57;;;;;;;;;;;;;;;22.67;71.42;100545.78;4943509;28;102124;-86
2021/08/26 09:41:41;;;;;;;;;;;;;;;22.67;71.66;100552.13;4940734;28;102283;-86
2021/08/26 09:44:09;;;;;;;;;;;;;;;22.68;71.52;100547.38;4946142;28;102153;-86
2021/08/26 09:46:35;;;;;;;;;;;;;;;22.66;71.42;100541.41;4944019;28;102675;-86
2021/08/26 09:49:02;;;;;;;;;;;;;;;22.66;71.68;100542.22;4943576;28;102193;-86
2021/08/26 09:51:29;;;;;;;;;;;;;;;22.66;71.61;100541.41;4944626;28;102131;-86
2021/08/26 09:53:55;;;;;;;;;;;;;;;22.66;71.68;100541.41;4941649;28;102466;-86
2021/08/26 09:56:22;;;;;;;;;;;;;;;22.65;71.72;100535.06;4944849;28;101869;-87
2021/08/26 09:58:54;;;;;;;;;;;;;;;22.65;71.70;100537.81;4942087;28;102158;-86
2021/08/26 10:01:21;;;;;;;;;;;;;;;22.66;71.66;100535.84;4941439;28;102090;-86
2021/08/26 10:03:48;;;;;;;;;;;;;;;22.65;71.50;100529.50;4944246;28;102043;-87
2021/08/26 10:06:14;;;;;;;;;;;;;;;22.66;71.65;100528.34;4943572;28;103112;-87
2021/08/26 10:08:42;;;;;;;;;;;;;;;22.66;71.75;100536.66;4939401;28;102101;-87
2021/08/26 10:11:09;;;;;;;;;;;;;;;22.65;71.78;100529.50;4941983;28;102087;-86
2021/08/26 10:13:36;;;;;;;;;;;;;;;22.64;71.62;100532.63;4941089;28;102083;-90
2021/08/26 10:16:05;;;;;;;;;;;;;;;22.64;71.82;100538.97;4937841;28;102175;-89
2021/08/26 10:18:32;;;;;;;;;;;;;;;22.64;71.82;100543.72;4937115;28;102366;-86
2021/08/26 10:20:58;;;;;;;;;;;;;;;22.65;71.87;100546.16;4941198;28;102078;-86
2021/08/26 10:23:25;;;;;;;;;;;;;;;22.65;71.62;100548.91;4938565;28;102275;-86
2021/08/26 10:25:53;;;;;;;;;;;;;;;22.64;71.83;100544.50;4940055;28;102696;-87
2021/08/26 10:28:20;;;;;;;;;;;;;;;22.64;71.71;100550.06;4940685;28;102704;-87
2021/08/26 10:30:46;;;;;;;;;;;;;;;22.64;71.94;100544.50;4937455;28;102136;-89
2021/08/26 10:33:14;;;;;;;;;;;;;;;22.64;71.75;100546.50;4935685;28;102377;-89
2021/08/26 10:36:01;;;;;;;;;;;;;;;22.63;71.91;100545.69;4952911;28;102709;-89
2021/08/26 10:38:28;;;;;;;;;;;;;;;22.64;71.83;100532.63;4935035;28;102283;-89
2021/08/26 10:40:58;;;;;;;;;;;;;;;22.63;71.76;100519.91;4934030;28;102022;-89
2021/08/26 10:43:32;;;;;;;;;;;;;;;22.63;71.64;100523.50;4934825;28;102123;-88
2021/08/26 10:45:59;;;;;;;;;;;;;;;22.62;71.88;100513.56;4937329;28;102764;-89
2021/08/26 10:48:27;;;;;;;;;;;;;;;22.63;71.62;100517.94;4951532;28;102452;-89
2021/08/26 10:51:04;;;;;;;;;;;;;;;22.62;72.06;100513.56;4934980;28;102271;-89
2021/08/26 10:53:32;;;;;;;;;;;;;;;22.62;71.96;100508.03;4936802;28;102238;-88
2021/08/26 10:56:12;;;;;;;;;;;;;;;22.61;71.91;100506.44;4935075;28;104141;-89
2021/08/26 10:58:39;;;;;;;;;;;;;;;22.61;72.12;100506.44;4937414;28;102503;-89
2021/08/26 11:01:06;;;;;;;;;;;;;;;22.61;71.95;100484.25;4935645;28;102167;-88
2021/08/26 11:03:51;;;;;;;;;;;;;;;22.60;71.67;100482.59;4938427;28;102284;-89
2021/08/26 11:06:47;;;;;;;;;;;;;;;22.59;72.09;100481.00;4934522;28;102730;-89
2021/08/26 11:09:23;;;;;;;;;;;;;;;22.61;71.82;100480.63;4886036;28;102179;-90
2021/08/26 11:11:53;;;;;;;;;;;;;;;22.60;71.97;100473.47;4928621;28;102127;-89
2021/08/26 11:14:24;;;;;;;;;;;;;;;22.59;71.75;100486.56;4939595;28;102139;-89
2021/08/26 11:16:52;;;;;;;;;;;;;;;22.61;71.73;100506.44;4935781;28;102751;-89
2021/08/26 11:19:29;;;;;;;;;;;;;;;22.59;71.96;100508.75;4957939;28;102178;-89
2021/08/26 11:22:05;;;;;;;;;;;;;;;22.59;71.85;100503.19;4938455;28;103158;-89
2021/08/26 11:24:53;;;;;;;;;;;;;;;22.59;72.10;100497.66;4942015;28;101942;-88
2021/08/26 11:27:21;;;;;;;;;;;;;;;22.58;72.00;100498.81;4935245;28;103467;-88
2021/08/26 11:29:48;;;;;;;;;;;;;;;22.59;71.86;100497.66;4936005;28;102219;-86
2021/08/26 11:32:15;;;;;;;;;;;;;;;22.58;71.71;100512.69;4938249;28;102358;-87
2021/08/26 11:34:42;;;;;;;;;;;;;;;22.58;72.12;100523.78;4941027;28;102226;-87
2021/08/26 11:37:09;;;;;;;;;;;;;;;22.58;71.99;100523.78;4941282;28;102754;-87
2021/08/26 11:39:37;;;;;;;;;;;;;;;22.59;71.98;100519.84;4940982;28;102202;-87
2021/08/26 11:42:06;;;;;;;;;;;;;;;22.58;72.00;100501.59;4942907;28;102180;-89
2021/08/26 11:44:33;;;;;;;;;;;;;;;22.57;72.18;100499.97;4943535;28;102296;-87
2021/08/26 11:47:00;;;;;;;;;;;;;;;22.57;72.09;100516.59;4939877;28;102723;-88
2021/08/26 11:49:33;;;;;;;;;;;;;;;22.57;72.12;100537.97;4940885;28;102230;-88
2021/08/26 11:52:04;;;;;;;;;;;;;;;22.58;72.04;100551.50;4942465;28;102119;-91
2021/08/26 11:54:36;;;;;;;;;;;;;;;22.58;72.29;100551.50;4959976;28;102079;-91
2021/08/26 11:57:02;;;;;;;;;;;;;;;22.57;72.15;100582.34;4943781;28;102416;-91
2021/08/26 11:59:31;;;;;;;;;;;;;;;22.58;72.23;100589.53;4943460;28;101970;-90
2021/08/26 12:02:17;;;;;;;;;;;;;;;22.56;72.06;100581.56;4944073;28;102118;-90
2021/08/26 12:04:44;;;;;;;;;;;;;;;22.55;72.14;100546.69;4938964;28;102253;-90
2021/08/26 12:07:10;;;;;;;;;;;;;;;22.55;72.06;100521.72;4944364;28;102706;-90
2021/08/26 12:09:36;;;;;;;;;;;;;;;22.54;72.27;100522.88;4943089;28;102096;-92
2021/08/26 12:12:08;;;;;;;;;;;;;;;22.54;72.24;100517.34;4940512;28;102133;-92
2021/08/26 12:14:36;;;;;;;;;;;;;;;22.54;72.26;100520.13;4958009;28;102041;-90
2021/08/26 12:17:09;;;;;;;;;;;;;;;22.55;72.37;100513.41;4943292;28;102720;-90
2021/08/26 12:19:35;;;;;;;;;;;;;;;22.54;72.36;100515.38;4943766;28;101970;-90
2021/08/26 12:22:02;;;;;;;;;;;;;;;22.53;72.36;100510.16;4940652;28;101908;-90
2021/08/26 12:24:28;;;;;;;;;;;;;;;22.54;72.13;100517.34;4943155;28;102089;-90
2021/08/26 12:26:54;;;;;;;;;;;;;;;22.54;72.46;100517.34;4955665;28;102735;-90
2021/08/26 12:29:20;;;;;;;;;;;;;;;22.53;72.44;100510.16;4943913;28;102060;-91
2021/08/26 12:31:48;;;;;;;;;;;;;;;22.54;72.08;100517.34;4942607;28;101998;-86
2021/08/26 12:34:14;;;;;;;;;;;;;;;22.54;72.26;100517.34;4942029;28;102348;-88